Time;durP1;ratioP1;P1;durP2;ratioP2;P2;SDS_P1;SDS_P2;PMS_P1;PMS_P2;Temp;Humidity;BMP_temperature;BMP_pressure;BME280_temperature;BME280_humidity;BME280_pressure;Samples;Min_cycle;Max_cycle;Signal;HPM_P1;HPM_P2
2023/12/03 00:01:31;;;;;;;8.35;5.15;;;0.90;99.90;;;;;;6200635;23;20422;-71
2023/12/03 00:03:57;;;;;;;8.20;5.35;;;0.90;99.90;;;;;;6204403;23;20473;-71
2023/12/03 00:06:22;;;;;;;7.55;4.65;;;0.90;99.90;;;;;;6204227;23;20480;-70
2023/12/03 00:08:48;;;;;;;9.45;5.60;;;0.80;99.90;;;;;;6198738;23;20005;-69
2023/12/03 00:11:14;;;;;;;10.43;5.60;;;0.90;99.90;;;;;;6178762;23;20485;-69
2023/12/03 00:13:40;;;;;;;8.88;4.93;;;0.80;99.90;;;;;;6194440;23;20036;-72
2023/12/03 00:16:06;;;;;;;9.18;5.38;;;0.80;99.90;;;;;;6200480;23;20005;-71
2023/12/03 00:18:31;;;;;;;9.43;5.95;;;0.80;99.90;;;;;;6198848;23;20752;-70
2023/12/03 00:20:57;;;;;;;10.73;5.13;;;0.80;99.90;;;;;;6199425;23;20008;-73
2023/12/03 00:23:22;;;;;;;7.53;5.13;;;0.80;99.90;;;;;;6198856;23;20084;-72
2023/12/03 00:25:48;;;;;;;9.85;5.78;;;0.80;99.90;;;;;;6199221;23;20005;-73
2023/12/03 00:28:14;;;;;;;7.47;4.90;;;0.80;99.90;;;;;;6198343;23;20330;-71
2023/12/03 00:30:39;;;;;;;7.32;4.75;;;0.70;99.90;;;;;;6197275;23;20124;-70
2023/12/03 00:33:05;;;;;;;7.57;5.15;;;0.70;99.90;;;;;;6199055;23;20524;-73
2023/12/03 00:35:30;;;;;;;8.82;5.30;;;0.60;99.90;;;;;;6201772;23;20008;-72
2023/12/03 00:37:56;;;;;;;8.85;5.68;;;0.60;99.90;;;;;;6198163;23;20012;-71
2023/12/03 00:40:21;;;;;;;8.88;5.45;;;0.60;99.90;;;;;;6200515;23;20004;-71
2023/12/03 00:42:47;;;;;;;7.15;4.55;;;0.60;99.90;;;;;;6197322;23;20458;-73
2023/12/03 00:45:13;;;;;;;8.43;5.22;;;0.50;99.90;;;;;;6196958;23;20084;-68
2023/12/03 00:47:38;;;;;;;8.18;5.00;;;0.50;99.90;;;;;;6201297;23;20005;-69
2023/12/03 00:50:04;;;;;;;8.57;4.70;;;0.50;99.90;;;;;;6200824;23;20405;-73
2023/12/03 00:52:30;;;;;;;7.80;4.70;;;0.50;99.90;;;;;;6200014;23;20405;-74
2023/12/03 00:54:56;;;;;;;6.75;4.68;;;0.50;99.90;;;;;;6200161;23;20410;-70
2023/12/03 00:57:21;;;;;;;7.78;4.80;;;0.50;99.90;;;;;;6195870;23;20016;-71
2023/12/03 00:59:47;;;;;;;9.27;4.72;;;0.40;99.90;;;;;;6196143;23;20072;-69
2023/12/03 01:02:13;;;;;;;6.60;4.40;;;0.40;99.90;;;;;;6199703;23;20011;-70
2023/12/03 01:04:38;;;;;;;7.78;4.88;;;0.50;99.90;;;;;;6200999;23;20489;-72
2023/12/03 01:07:04;;;;;;;9.43;5.78;;;0.40;99.90;;;;;;6200771;23;20008;-71
2023/12/03 01:09:30;;;;;;;8.48;4.97;;;0.40;99.90;;;;;;6201481;23;20394;-70
2023/12/03 01:11:57;;;;;;;8.77;5.07;;;0.50;99.90;;;;;;6198225;23;20004;-71
2023/12/03 01:14:23;;;;;;;7.60;4.32;;;0.50;99.90;;;;;;6201099;23;20037;-72
2023/12/03 01:16:49;;;;;;;7.90;4.57;;;0.60;99.90;;;;;;6201564;23;20020;-72
2023/12/03 01:19:14;;;;;;;7.10;4.43;;;0.60;99.90;;;;;;6198388;23;20012;-74
2023/12/03 01:21:40;;;;;;;6.57;3.95;;;0.60;99.90;;;;;;6176325;23;20012;-75
2023/12/03 01:24:06;;;;;;;9.05;4.40;;;0.70;99.90;;;;;;6204008;23;20011;-74
2023/12/03 01:26:31;;;;;;;6.63;4.20;;;0.70;99.90;;;;;;6200889;23;20756;-73
2023/12/03 01:28:58;;;;;;;6.75;3.92;;;0.70;99.90;;;;;;6200255;23;20103;-74
2023/12/03 01:31:23;;;;;;;4.60;3.25;;;0.70;99.90;;;;;;6201107;23;20012;-72
2023/12/03 01:33:49;;;;;;;5.35;3.45;;;0.80;99.90;;;;;;6202079;23;20342;-73
2023/12/03 01:36:14;;;;;;;7.78;4.15;;;0.80;99.90;;;;;;6201573;23;20005;-72
2023/12/03 01:38:40;;;;;;;8.38;4.45;;;0.70;99.90;;;;;;6176953;23;20005;-68
2023/12/03 01:41:06;;;;;;;5.35;3.58;;;0.70;99.90;;;;;;6201549;23;20000;-67
2023/12/03 01:43:32;;;;;;;6.70;4.13;;;0.60;99.90;;;;;;6197845;23;20032;-70
2023/12/03 01:45:57;;;;;;;6.22;4.05;;;0.60;99.90;;;;;;6201338;23;20652;-68
2023/12/03 01:48:23;;;;;;;6.50;4.10;;;0.70;99.90;;;;;;6198076;23;20013;-66
2023/12/03 01:50:50;;;;;;;7.07;4.93;;;0.60;99.90;;;;;;6200077;23;20001;-65
2023/12/03 01:53:17;;;;;;;7.13;4.30;;;0.60;99.90;;;;;;6199355;23;20012;-67
2023/12/03 01:55:43;;;;;;;6.68;4.25;;;0.70;99.90;;;;;;6200739;23;20500;-66
2023/12/03 01:58:09;;;;;;;7.43;4.55;;;0.70;99.90;;;;;;6200579;23;20023;-66
2023/12/03 02:00:34;;;;;;;5.97;4.30;;;0.70;99.90;;;;;;6200351;23;20079;-66
2023/12/03 02:03:00;;;;;;;5.88;4.22;;;0.80;99.90;;;;;;6197522;23;20186;-65
2023/12/03 02:05:26;;;;;;;6.45;4.00;;;0.80;99.90;;;;;;6197076;23;20050;-67
2023/12/03 02:07:51;;;;;;;7.10;4.15;;;0.70;99.90;;;;;;6199014;23;20765;-66
2023/12/03 02:10:17;;;;;;;6.38;4.25;;;0.70;99.90;;;;;;6199112;23;20399;-66
2023/12/03 02:12:43;;;;;;;6.22;3.80;;;0.80;99.90;;;;;;6195495;23;20846;-66
2023/12/03 02:15:09;;;;;;;5.72;3.83;;;0.80;99.90;;;;;;6197441;23;20371;-70
2023/12/03 02:17:35;;;;;;;6.72;4.20;;;0.70;99.90;;;;;;6199011;23;20016;-71
2023/12/03 02:20:01;;;;;;;6.65;3.92;;;0.70;99.90;;;;;;6198104;23;20012;-70
2023/12/03 02:22:26;;;;;;;5.68;3.63;;;0.70;99.90;;;;;;6194644;23;20017;-70
2023/12/03 02:24:52;;;;;;;7.40;3.63;;;0.80;99.90;;;;;;6198187;23;20083;-69
2023/12/03 02:27:18;;;;;;;5.07;3.97;;;0.70;99.90;;;;;;6195647;23;20005;-69
2023/12/03 02:29:47;;;;;;;4.90;3.88;;;0.70;99.90;;;;;;6198399;23;20473;-70
2023/12/03 02:32:13;;;;;;;6.20;3.70;;;0.80;99.90;;;;;;6198289;23;20294;-70
2023/12/03 02:34:39;;;;;;;6.57;4.35;;;0.80;99.90;;;;;;6195698;23;20005;-66
2023/12/03 02:37:05;;;;;;;3.78;3.22;;;0.80;99.90;;;;;;6192323;23;20020;-66
2023/12/03 02:39:30;;;;;;;5.60;3.63;;;0.80;99.90;;;;;;6198052;23;20087;-66
2023/12/03 02:41:56;;;;;;;4.97;3.63;;;0.80;99.90;;;;;;6197892;23;20008;-66
2023/12/03 02:44:21;;;;;;;5.03;3.75;;;0.80;99.90;;;;;;6199369;23;20024;-66
2023/12/03 02:46:47;;;;;;;5.78;3.78;;;0.80;99.90;;;;;;6198488;23;20402;-66
2023/12/03 02:49:12;;;;;;;5.88;3.45;;;0.90;99.90;;;;;;6199035;23;20377;-65
2023/12/03 02:51:38;;;;;;;6.72;4.03;;;0.80;99.90;;;;;;6198606;23;20107;-68
2023/12/03 02:54:03;;;;;;;4.93;3.42;;;0.80;99.90;;;;;;6198160;23;20000;-69
2023/12/03 02:56:29;;;;;;;4.57;3.10;;;0.90;99.90;;;;;;6170551;23;20015;-68
2023/12/03 02:58:54;;;;;;;4.18;2.90;;;0.80;99.90;;;;;;6198179;23;20004;-66
2023/12/03 03:01:20;;;;;;;5.30;3.00;;;0.80;99.90;;;;;;6199396;23;20007;-67
2023/12/03 03:03:45;;;;;;;3.92;2.92;;;0.70;99.90;;;;;;6199930;23;20000;-67
2023/12/03 03:06:11;;;;;;;6.28;3.75;;;0.70;99.90;;;;;;6198249;23;20012;-67
2023/12/03 03:08:37;;;;;;;5.20;3.60;;;0.80;99.90;;;;;;6199983;23;20511;-66
2023/12/03 03:11:02;;;;;;;4.38;3.35;;;0.80;99.90;;;;;;6200561;23;20067;-66
2023/12/03 03:13:28;;;;;;;4.70;3.55;;;0.90;99.90;;;;;;6198919;23;20009;-66
2023/12/03 03:15:54;;;;;;;5.55;3.25;;;0.80;99.90;;;;;;6200354;23;20082;-66
2023/12/03 03:18:20;;;;;;;3.92;2.95;;;0.70;99.90;;;;;;6198888;23;20015;-69
2023/12/03 03:20:45;;;;;;;5.25;3.35;;;0.70;99.90;;;;;;6200232;23;20004;-71
2023/12/03 03:23:11;;;;;;;10.40;3.58;;;0.50;99.90;;;;;;6196758;23;20035;-70
2023/12/03 03:25:36;;;;;;;4.75;3.22;;;0.50;99.90;;;;;;6197167;23;20355;-70
2023/12/03 03:28:02;;;;;;;4.00;2.78;;;0.50;99.90;;;;;;6197814;23;20004;-73
2023/12/03 03:30:27;;;;;;;3.53;2.63;;;0.50;99.90;;;;;;6200050;23;20020;-73
2023/12/03 03:32:53;;;;;;;4.63;3.00;;;0.50;99.90;;;;;;6199664;23;20107;-68
2023/12/03 03:35:18;;;;;;;6.00;3.22;;;0.50;99.90;;;;;;6196606;23;20004;-68
2023/12/03 03:37:44;;;;;;;5.50;3.17;;;0.50;99.90;;;;;;6198250;23;20060;-67
2023/12/03 03:40:10;;;;;;;4.57;3.13;;;0.60;99.90;;;;;;6198567;23;20008;-68
2023/12/03 03:42:36;;;;;;;3.40;2.90;;;0.70;99.90;;;;;;6196024;23;20094;-67
2023/12/03 03:45:01;;;;;;;5.60;3.35;;;0.80;99.90;;;;;;6199740;23;20827;-68
2023/12/03 03:47:27;;;;;;;4.15;2.97;;;0.90;99.90;;;;;;6197333;23;20437;-70
2023/12/03 03:49:52;;;;;;;3.60;2.53;;;0.90;99.90;;;;;;6199361;23;20412;-69
2023/12/03 03:52:18;;;;;;;4.55;2.90;;;1.00;99.90;;;;;;6198979;23;20009;-70
2023/12/03 03:54:44;;;;;;;4.00;3.00;;;1.00;99.90;;;;;;6197242;23;20005;-70
2023/12/03 03:57:09;;;;;;;4.20;3.03;;;0.90;99.90;;;;;;6199237;23;20013;-69
2023/12/03 03:59:35;;;;;;;3.20;2.42;;;0.80;99.90;;;;;;6197934;23;20058;-70
2023/12/03 04:02:01;;;;;;;3.65;2.50;;;0.80;99.90;;;;;;6171348;23;20004;-70
2023/12/03 04:04:26;;;;;;;3.13;2.55;;;0.70;99.90;;;;;;6201535;23;20553;-71
2023/12/03 04:06:52;;;;;;;3.65;2.60;;;0.70;99.90;;;;;;6198889;23;20019;-70
2023/12/03 04:09:17;;;;;;;2.90;2.42;;;0.60;99.90;;;;;;6200286;23;20701;-70
2023/12/03 04:11:45;;;;;;;4.38;3.08;;;0.40;99.90;;;;;;6200766;23;20466;-70
2023/12/03 04:14:17;;;;;;;3.88;2.35;;;0.30;99.90;;;;;;6199587;23;20005;-70
2023/12/03 04:16:43;;;;;;;3.50;2.65;;;0.20;99.90;;;;;;6197854;23;20055;-70
2023/12/03 04:19:08;;;;;;;3.63;2.75;;;0.10;99.90;;;;;;6201290;23;20009;-70
2023/12/03 04:21:36;;;;;;;4.32;2.75;;;0.00;99.90;;;;;;6200378;23;20080;-71
2023/12/03 04:24:02;;;;;;;2.92;2.42;;;0.00;99.90;;;;;;6201649;23;20071;-70
2023/12/03 04:26:28;;;;;;;3.22;2.75;;;-0.10;99.90;;;;;;6199183;23;20008;-70
2023/12/03 04:28:53;;;;;;;3.72;2.45;;;0.00;99.90;;;;;;6199148;23;20016;-70
2023/12/03 04:31:27;;;;;;;3.33;2.38;;;-0.10;99.90;;;;;;6201489;23;20005;-70
2023/12/03 04:33:54;;;;;;;3.90;2.80;;;-0.20;99.90;;;;;;6199540;23;20013;-70
2023/12/03 04:36:23;;;;;;;3.35;2.58;;;-0.20;99.90;;;;;;6200224;23;20012;-71
2023/12/03 04:38:52;;;;;;;4.05;3.00;;;-0.20;99.90;;;;;;6200984;23;20012;-70
2023/12/03 04:41:18;;;;;;;3.97;2.75;;;-0.20;99.90;;;;;;6201110;23;20028;-70
2023/12/03 04:43:43;;;;;;;4.25;3.15;;;-0.30;99.90;;;;;;6199395;23;20090;-70
2023/12/03 04:46:09;;;;;;;3.00;2.22;;;-0.30;99.90;;;;;;6200147;23;20286;-69
2023/12/03 04:48:36;;;;;;;4.80;3.05;;;-0.20;99.90;;;;;;6200648;23;20015;-69
2023/12/03 04:51:02;;;;;;;4.20;2.97;;;-0.20;99.90;;;;;;6203368;23;20001;-69
2023/12/03 04:53:28;;;;;;;3.65;2.80;;;-0.20;99.90;;;;;;6202565;23;20040;-68
2023/12/03 04:55:54;;;;;;;3.10;2.22;;;-0.20;99.90;;;;;;6202427;23;20032;-69
2023/12/03 04:58:20;;;;;;;2.70;2.28;;;-0.20;99.90;;;;;;6201807;23;20400;-69
2023/12/03 05:00:45;;;;;;;3.40;2.67;;;-0.30;99.90;;;;;;6202378;23;20005;-69
2023/12/03 05:03:11;;;;;;;3.50;2.05;;;-0.30;99.90;;;;;;6201258;23;20004;-69
2023/12/03 05:05:36;;;;;;;3.42;2.47;;;-0.40;99.90;;;;;;6199936;23;20446;-69
2023/12/03 05:08:02;;;;;;;2.53;2.13;;;-0.30;99.90;;;;;;6201576;23;20012;-69
2023/12/03 05:10:30;;;;;;;3.25;2.55;;;-0.40;99.90;;;;;;6201941;23;20004;-69
2023/12/03 05:12:56;;;;;;;3.22;2.63;;;-0.40;99.90;;;;;;6199827;23;20042;-74
2023/12/03 05:15:22;;;;;;;3.38;2.60;;;-0.40;99.90;;;;;;6200959;23;20036;-65
2023/12/03 05:17:48;;;;;;;4.93;2.70;;;-0.60;99.90;;;;;;6198786;23;20013;-64
2023/12/03 05:20:13;;;;;;;4.28;2.97;;;-0.60;99.90;;;;;;6201340;23;20007;-65
2023/12/03 05:22:39;;;;;;;3.38;2.30;;;-0.60;99.90;;;;;;6200355;23;20012;-66
2023/12/03 05:25:05;;;;;;;3.45;2.30;;;-0.60;99.90;;;;;;6198331;23;20369;-66
2023/12/03 05:27:32;;;;;;;3.25;2.10;;;-0.60;99.90;;;;;;6201099;23;20019;-67
2023/12/03 05:29:58;;;;;;;3.33;2.67;;;-0.60;99.90;;;;;;6200224;23;20191;-66
2023/12/03 05:32:23;;;;;;;4.07;3.15;;;-0.60;99.90;;;;;;6200271;23;20032;-66
2023/12/03 05:34:49;;;;;;;4.65;2.83;;;-0.50;99.90;;;;;;6201786;23;20414;-66
2023/12/03 05:37:14;;;;;;;4.05;3.20;;;-0.40;99.90;;;;;;6201392;23;20450;-66
2023/12/03 05:39:41;;;;;;;3.60;2.67;;;-0.40;99.90;;;;;;6201421;23;20008;-70
2023/12/03 05:42:07;;;;;;;3.08;2.38;;;-0.30;99.90;;;;;;6199058;23;20504;-70
2023/12/03 05:44:33;;;;;;;3.47;2.90;;;-0.40;99.90;;;;;;6200814;23;20385;-70
2023/12/03 05:46:59;;;;;;;3.65;2.28;;;-0.40;99.90;;;;;;6201337;23;20531;-71
2023/12/03 05:49:25;;;;;;;3.30;2.33;;;-0.50;99.90;;;;;;6199656;23;20418;-71
2023/12/03 05:51:50;;;;;;;4.07;3.17;;;-0.50;99.90;;;;;;6200654;23;20382;-71
2023/12/03 05:54:16;;;;;;;4.40;2.58;;;-0.60;99.90;;;;;;6201913;23;19997;-71
2023/12/03 05:56:44;;;;;;;4.07;2.67;;;-0.60;99.90;;;;;;6201457;23;20024;-71
2023/12/03 05:59:09;;;;;;;3.05;2.40;;;-0.60;99.90;;;;;;6172576;23;20438;-71
2023/12/03 06:01:35;;;;;;;3.78;2.85;;;-0.60;99.90;;;;;;6202926;23;20023;-71
2023/12/03 06:04:06;;;;;;;4.57;3.30;;;-0.70;99.90;;;;;;6200384;23;20906;-71
2023/12/03 06:06:35;;;;;;;3.05;2.58;;;-0.60;99.90;;;;;;6201725;23;20034;-71
2023/12/03 06:09:03;;;;;;;7.70;4.13;;;-0.70;99.90;;;;;;6202460;23;20000;-71
2023/12/03 06:11:29;;;;;;;4.97;3.08;;;-0.70;99.90;;;;;;6201351;23;20061;-71
2023/12/03 06:13:57;;;;;;;11.48;5.40;;;-0.60;99.90;;;;;;6201500;23;20005;-71
2023/12/03 06:16:23;;;;;;;12.10;5.93;;;-0.60;99.90;;;;;;6202357;23;20004;-71
2023/12/03 06:18:49;;;;;;;16.23;6.25;;;-0.50;99.90;;;;;;6200240;23;20114;-71
2023/12/03 06:21:15;;;;;;;4.85;3.67;;;-0.40;99.90;;;;;;6199798;23;20592;-71
2023/12/03 06:23:40;;;;;;;2.83;2.35;;;-0.50;99.90;;;;;;6202253;23;20009;-70
2023/12/03 06:26:06;;;;;;;3.42;2.47;;;-0.40;99.90;;;;;;6200662;23;20000;-71
2023/12/03 06:28:32;;;;;;;4.63;2.85;;;-0.30;99.90;;;;;;6199861;23;20071;-71
2023/12/03 06:30:57;;;;;;;3.20;2.42;;;-0.30;99.90;;;;;;6201118;23;20005;-71
2023/12/03 06:33:23;;;;;;;3.97;2.60;;;-0.40;99.90;;;;;;6202134;23;20008;-71
2023/12/03 06:35:49;;;;;;;4.68;3.20;;;-0.50;99.90;;;;;;6201056;23;20005;-72
2023/12/03 06:38:15;;;;;;;5.00;3.17;;;-0.50;99.90;;;;;;6201207;23;20102;-71
2023/12/03 06:40:41;;;;;;;4.72;3.72;;;-0.40;99.90;;;;;;6201421;23;20349;-71
2023/12/03 06:43:07;;;;;;;3.83;2.95;;;-0.20;99.90;;;;;;6200860;23;20315;-72
2023/12/03 06:45:33;;;;;;;4.85;3.47;;;-0.20;99.90;;;;;;6198633;23;20246;-71
2023/12/03 06:47:59;;;;;;;9.15;6.85;;;-0.10;99.90;;;;;;6200504;23;20000;-72
2023/12/03 06:50:25;;;;;;;6.22;4.30;;;0.00;99.90;;;;;;6199313;23;20711;-74
2023/12/03 06:52:51;;;;;;;14.88;8.95;;;0.10;99.90;;;;;;6201884;23;20005;-74
2023/12/03 06:55:16;;;;;;;10.10;7.50;;;0.10;99.90;;;;;;6202085;23;20318;-74
2023/12/03 06:57:42;;;;;;;7.05;5.22;;;0.10;99.90;;;;;;6172650;23;20304;-74
2023/12/03 07:00:08;;;;;;;8.55;4.63;;;0.10;99.90;;;;;;6202919;23;20001;-75
2023/12/03 07:02:34;;;;;;;5.55;3.85;;;0.10;99.90;;;;;;6197522;23;20013;-74
2023/12/03 07:04:59;;;;;;;5.75;4.00;;;0.10;99.90;;;;;;6198106;23;20000;-73
2023/12/03 07:07:25;;;;;;;3.35;2.58;;;0.00;99.90;;;;;;6198897;23;20067;-74
2023/12/03 07:09:51;;;;;;;3.13;2.60;;;-0.10;99.90;;;;;;6201024;23;20001;-77
2023/12/03 07:12:16;;;;;;;3.20;2.42;;;-0.20;99.90;;;;;;6198087;23;20048;-74
2023/12/03 07:14:42;;;;;;;4.13;2.83;;;-0.40;99.90;;;;;;6200148;23;20102;-75
2023/12/03 07:17:08;;;;;;;3.90;2.63;;;-0.40;99.90;;;;;;6173787;23;20017;-75
2023/12/03 07:19:33;;;;;;;3.10;2.22;;;-0.30;99.90;;;;;;6198548;23;20380;-75
2023/12/03 07:21:59;;;;;;;3.90;2.55;;;-0.30;99.90;;;;;;6199686;23;20004;-75
2023/12/03 07:24:25;;;;;;;3.95;2.55;;;-0.30;99.90;;;;;;6197967;23;20405;-76
2023/12/03 07:26:50;;;;;;;6.00;3.63;;;-0.40;99.90;;;;;;6200310;23;20378;-75
2023/12/03 07:29:19;;;;;;;3.03;2.50;;;-0.30;99.90;;;;;;6197555;23;20000;-73
2023/12/03 07:31:45;;;;;;;2.72;2.15;;;-0.40;99.90;;;;;;6199604;23;20303;-74
2023/12/03 07:34:11;;;;;;;3.08;2.42;;;-0.50;99.90;;;;;;6199463;23;20007;-74
2023/12/03 07:36:37;;;;;;;3.47;2.88;;;-0.60;99.90;;;;;;6201815;23;20680;-86
2023/12/03 07:39:03;;;;;;;3.03;2.38;;;-0.60;99.90;;;;;;6200610;23;20383;-79
2023/12/03 07:41:30;;;;;;;3.88;2.60;;;-0.80;99.90;;;;;;6199204;23;20004;-65
2023/12/03 07:43:56;;;;;;;3.78;2.50;;;-0.90;99.90;;;;;;6200961;23;20016;-65
2023/12/03 07:46:21;;;;;;;3.38;2.50;;;-1.10;99.90;;;;;;6195171;23;20013;-67
2023/12/03 07:48:47;;;;;;;12.80;6.68;;;-1.10;99.90;;;;;;6199109;23;20004;-66
2023/12/03 07:51:13;;;;;;;5.07;3.30;;;-1.00;99.90;;;;;;6199344;23;20270;-66
2023/12/03 07:53:41;;;;;;;3.78;2.85;;;-0.90;99.90;;;;;;6199024;23;20024;-65
2023/12/03 07:56:08;;;;;;;3.05;2.42;;;-0.70;99.90;;;;;;6200838;23;20323;-66
2023/12/03 07:58:36;;;;;;;3.58;2.97;;;-0.70;99.90;;;;;;6198744;23;20009;-68
2023/12/03 08:01:03;;;;;;;2.45;2.22;;;-0.70;99.90;;;;;;6198982;23;20013;-66
2023/12/03 08:03:29;;;;;;;4.13;2.70;;;-0.80;99.90;;;;;;6199564;23;20413;-66
2023/12/03 08:05:54;;;;;;;3.90;2.80;;;-0.80;99.90;;;;;;6199445;23;20389;-66
2023/12/03 08:08:20;;;;;;;4.30;2.78;;;-0.70;99.90;;;;;;6197575;23;20008;-67
2023/12/03 08:10:46;;;;;;;4.22;3.08;;;-0.70;99.90;;;;;;6198579;23;20082;-66
2023/12/03 08:13:11;;;;;;;3.78;2.83;;;-0.60;99.90;;;;;;6199159;23;20009;-66
2023/12/03 08:15:37;;;;;;;4.38;3.03;;;-0.50;99.90;;;;;;6199523;23;20334;-67
2023/12/03 08:18:04;;;;;;;3.13;2.28;;;-0.70;99.90;;;;;;6201078;23;20013;-63
2023/12/03 08:20:30;;;;;;;3.90;2.70;;;-0.70;99.90;;;;;;6198944;23;20518;-67
2023/12/03 08:22:55;;;;;;;3.72;3.22;;;-0.80;99.90;;;;;;6196665;23;20107;-67
2023/12/03 08:25:21;;;;;;;4.18;3.20;;;-0.80;99.90;;;;;;6201397;23;20009;-68
2023/12/03 08:27:47;;;;;;;4.13;2.83;;;-0.70;99.90;;;;;;6197118;23;20008;-64
2023/12/03 08:30:13;;;;;;;5.40;3.45;;;-0.70;99.90;;;;;;6172846;23;20429;-65
2023/12/03 08:32:39;;;;;;;3.80;2.47;;;-0.70;99.90;;;;;;6197540;23;20654;-67
2023/12/03 08:35:05;;;;;;;4.32;2.50;;;-0.80;99.90;;;;;;6200911;23;20024;-65
2023/12/03 08:37:30;;;;;;;4.00;3.10;;;-0.80;99.90;;;;;;6198704;23;20025;-67
2023/12/03 08:39:56;;;;;;;4.47;2.60;;;-0.70;99.90;;;;;;6201168;23;20062;-68
2023/12/03 08:42:21;;;;;;;3.53;2.55;;;-0.70;99.90;;;;;;6195856;23;20138;-65
2023/12/03 08:44:47;;;;;;;3.67;2.63;;;-0.70;99.90;;;;;;6195589;23;20422;-64
2023/12/03 08:47:13;;;;;;;3.40;2.90;;;-0.80;99.90;;;;;;6199962;23;20004;-66
2023/12/03 08:49:39;;;;;;;4.32;2.80;;;-0.80;99.90;;;;;;6194741;23;20027;-65
2023/12/03 08:52:06;;;;;;;4.85;3.15;;;-0.80;99.90;;;;;;6199060;23;20004;-65
2023/12/03 08:54:32;;;;;;;3.50;2.78;;;-0.70;99.90;;;;;;6200198;23;20013;-65
2023/12/03 08:56:59;;;;;;;4.30;3.10;;;-0.60;99.90;;;;;;6197170;23;20011;-67
2023/12/03 08:59:25;;;;;;;4.80;2.70;;;-0.40;99.90;;;;;;6197596;23;20096;-68
2023/12/03 09:01:50;;;;;;;4.05;2.55;;;-0.50;99.90;;;;;;6198641;23;20024;-70
2023/12/03 09:04:16;;;;;;;3.60;2.72;;;-0.60;99.90;;;;;;6198748;23;20373;-67
2023/12/03 09:06:44;;;;;;;3.45;2.45;;;-0.70;99.90;;;;;;6196923;23;20031;-69
2023/12/03 09:09:09;;;;;;;3.53;2.63;;;-0.70;99.90;;;;;;6199731;23;20155;-67
2023/12/03 09:11:35;;;;;;;3.17;2.25;;;-0.60;99.90;;;;;;6199496;23;20071;-68
2023/12/03 09:14:01;;;;;;;2.47;2.10;;;-0.60;99.90;;;;;;6199353;23;20000;-71
2023/12/03 09:16:27;;;;;;;4.03;2.50;;;-0.60;99.90;;;;;;6198470;23;20035;-70
2023/12/03 09:18:52;;;;;;;3.92;2.60;;;-0.70;99.90;;;;;;6198870;23;20032;-67
2023/12/03 09:21:18;;;;;;;4.70;3.15;;;-0.70;99.90;;;;;;6171656;23;20008;-67
2023/12/03 09:23:44;;;;;;;4.07;1.88;;;-0.60;99.90;;;;;;6195651;23;20004;-70
2023/12/03 09:26:09;;;;;;;3.70;2.28;;;-0.70;99.90;;;;;;6194914;23;20094;-67
2023/12/03 09:28:35;;;;;;;3.75;2.53;;;-0.70;99.90;;;;;;6197688;23;20009;-67
2023/12/03 09:31:01;;;;;;;3.13;2.25;;;-0.60;99.90;;;;;;6200129;23;20322;-67
2023/12/03 09:33:27;;;;;;;3.97;2.47;;;-0.60;99.90;;;;;;6198141;23;20008;-68
2023/12/03 09:35:53;;;;;;;3.50;2.42;;;-0.60;99.90;;;;;;6171998;23;20023;-70
2023/12/03 09:38:19;;;;;;;3.35;2.22;;;-0.50;99.90;;;;;;6201621;23;20016;-70
2023/12/03 09:40:47;;;;;;;3.45;2.30;;;-0.40;99.90;;;;;;6200126;23;20176;-70
2023/12/03 09:43:16;;;;;;;2.15;1.90;;;-0.40;99.90;;;;;;6199762;23;20024;-71
2023/12/03 09:45:44;;;;;;;2.72;2.20;;;-0.40;99.90;;;;;;6200055;23;20067;-71
2023/12/03 09:48:12;;;;;;;3.53;2.65;;;-0.40;99.90;;;;;;6199151;23;20355;-70
2023/12/03 09:50:37;;;;;;;3.13;2.55;;;-0.30;99.90;;;;;;6198707;23;20084;-70
2023/12/03 09:53:06;;;;;;;2.85;2.45;;;-0.20;99.90;;;;;;6200599;23;20111;-70
2023/12/03 09:55:33;;;;;;;2.75;2.30;;;0.00;99.90;;;;;;6194530;23;20020;-70
2023/12/03 09:58:00;;;;;;;2.95;2.10;;;0.00;99.90;;;;;;6199300;23;20017;-70
2023/12/03 10:00:26;;;;;;;3.97;2.15;;;0.10;99.90;;;;;;6201231;23;20004;-71
2023/12/03 10:02:56;;;;;;;3.55;2.30;;;0.10;99.90;;;;;;6200035;23;20012;-70
2023/12/03 10:05:21;;;;;;;4.22;2.85;;;0.20;99.90;;;;;;6195882;23;20268;-70
2023/12/03 10:07:49;;;;;;;3.13;2.25;;;0.20;99.90;;;;;;6200164;23;20058;-71
2023/12/03 10:10:19;;;;;;;2.58;2.10;;;0.20;99.90;;;;;;6201998;23;20710;-71
2023/12/03 10:12:48;;;;;;;3.90;2.30;;;0.30;99.90;;;;;;6200461;23;20008;-70
2023/12/03 10:15:14;;;;;;;4.95;3.17;;;0.30;99.90;;;;;;6198042;23;20011;-70
2023/12/03 10:17:40;;;;;;;3.65;2.42;;;0.30;99.90;;;;;;6202099;23;20016;-71
2023/12/03 10:20:20;;;;;;;2.58;1.90;;;0.40;99.90;;;;;;6199527;23;20005;-70
2023/12/03 10:22:46;;;;;;;3.35;2.00;;;0.40;99.90;;;;;;6200521;23;20042;-69
2023/12/03 10:25:24;;;;;;;3.97;2.88;;;0.50;99.90;;;;;;6200309;23;20533;-70
2023/12/03 10:27:55;;;;;;;2.95;2.35;;;0.50;99.90;;;;;;6201610;23;20453;-72
2023/12/03 10:30:21;;;;;;;2.15;1.90;;;0.50;99.90;;;;;;6199939;23;20019;-71
2023/12/03 10:32:46;;;;;;;3.10;2.35;;;0.50;99.90;;;;;;6200618;23;20080;-72
2023/12/03 10:35:12;;;;;;;3.70;1.77;;;0.50;99.90;;;;;;6199884;23;20008;-71
2023/12/03 10:37:38;;;;;;;6.22;2.70;;;0.50;99.90;;;;;;6199513;23;20044;-71
2023/12/03 10:40:04;;;;;;;8.40;2.50;;;0.60;99.90;;;;;;6202437;23;20015;-71
2023/12/03 10:42:33;;;;;;;5.90;3.30;;;0.80;99.90;;;;;;6199196;23;20623;-71
2023/12/03 10:45:10;;;;;;;7.60;4.20;;;0.80;99.90;;;;;;6199701;23;20015;-70
2023/12/03 10:47:36;;;;;;;2.28;1.80;;;0.90;99.90;;;;;;6196850;23;20722;-70
2023/12/03 10:50:06;;;;;;;2.63;2.03;;;0.90;99.90;;;;;;6200121;23;20404;-71
2023/12/03 10:52:35;;;;;;;3.17;2.20;;;0.90;99.90;;;;;;6197212;23;20015;-70
2023/12/03 10:55:01;;;;;;;2.88;2.13;;;0.90;99.90;;;;;;6199848;23;20001;-70
2023/12/03 10:57:29;;;;;;;3.67;2.60;;;0.80;99.90;;;;;;6197857;23;20273;-71
2023/12/03 11:00:10;;;;;;;2.50;1.98;;;0.80;99.90;;;;;;6202616;23;20007;-70
2023/12/03 11:03:06;;;;;;;7.40;3.03;;;0.80;99.90;;;;;;6204088;23;20000;-70
2023/12/03 11:05:40;;;;;;;9.18;6.10;;;0.90;99.90;;;;;;6170521;23;20284;-70
2023/12/03 11:08:07;;;;;;;4.68;3.55;;;1.10;99.90;;;;;;6201000;23;20011;-70
2023/12/03 11:10:33;;;;;;;3.70;2.13;;;1.10;99.90;;;;;;6202685;23;20012;-69
2023/12/03 11:13:00;;;;;;;11.38;6.00;;;1.00;99.90;;;;;;6194567;23;20007;-70
2023/12/03 11:15:27;;;;;;;5.75;4.40;;;0.90;99.90;;;;;;6196910;23;20047;-68
2023/12/03 11:17:53;;;;;;;26.33;13.63;;;0.80;99.90;;;;;;6196787;23;20466;-68
2023/12/03 11:20:30;;;;;;;5.90;4.50;;;1.00;99.90;;;;;;6197580;23;20076;-68
2023/12/03 11:23:05;;;;;;;3.85;2.60;;;1.10;99.90;;;;;;6198198;23;20623;-80
2023/12/03 11:25:37;;;;;;;61.20;44.13;;;1.20;99.90;;;;;;6199176;23;20011;-74
2023/12/03 11:28:03;;;;;;;11.82;8.75;;;1.10;99.90;;;;;;6196614;23;20008;-75
2023/12/03 11:30:40;;;;;;;6.60;5.07;;;1.20;99.90;;;;;;6200696;23;20009;-74
2023/12/03 11:33:19;;;;;;;33.42;22.13;;;1.20;99.90;;;;;;6198713;23;20309;-74
2023/12/03 11:35:46;;;;;;;7.03;4.35;;;1.20;99.90;;;;;;6196679;23;20001;-74
2023/12/03 11:38:18;;;;;;;7.05;5.22;;;1.20;99.90;;;;;;6198565;23;20015;-74
2023/12/03 11:40:43;;;;;;;5.63;3.75;;;1.20;99.90;;;;;;6197417;23;20024;-74
2023/12/03 11:43:30;;;;;;;19.23;11.20;;;1.30;99.90;;;;;;6198731;23;20047;-74
2023/12/03 11:45:56;;;;;;;10.98;8.35;;;1.20;99.90;;;;;;6168864;23;20755;-73
2023/12/03 11:48:25;;;;;;;11.38;8.45;;;1.30;99.90;;;;;;6197238;23;20341;-72
2023/12/03 11:50:53;;;;;;;22.13;15.20;;;1.30;99.90;;;;;;6192130;23;20032;-73
2023/12/03 11:53:30;;;;;;;11.95;9.10;;;1.30;99.90;;;;;;6198643;23;20033;-74
2023/12/03 11:55:56;;;;;;;6.90;4.63;;;1.30;99.90;;;;;;6200619;23;20067;-75
2023/12/03 11:58:22;;;;;;;5.43;4.22;;;1.30;99.90;;;;;;6197603;23;20656;-71
2023/12/03 12:00:48;;;;;;;8.32;6.10;;;1.30;99.90;;;;;;6198466;23;20063;-71
2023/12/03 12:03:14;;;;;;;12.65;10.50;;;1.20;99.90;;;;;;6195071;23;20004;-70
2023/12/03 12:05:46;;;;;;;6.18;4.95;;;1.30;99.90;;;;;;6197278;23;20080;-71
2023/12/03 12:08:23;;;;;;;18.77;13.23;;;1.30;99.90;;;;;;6195376;23;20490;-70
2023/12/03 12:10:50;;;;;;;10.60;4.70;;;1.30;99.90;;;;;;6199976;23;20016;-74
2023/12/03 12:13:16;;;;;;;6.60;3.97;;;1.30;99.90;;;;;;6197447;23;20477;-70
2023/12/03 12:15:42;;;;;;;6.18;4.78;;;1.30;99.90;;;;;;6200319;23;20008;-70
2023/12/03 12:18:09;;;;;;;11.13;3.08;;;1.20;99.90;;;;;;6197529;23;20016;-69
2023/12/03 12:20:35;;;;;;;5.53;3.25;;;1.20;99.90;;;;;;6198947;23;20005;-70
2023/12/03 12:23:01;;;;;;;8.80;4.90;;;1.30;99.90;;;;;;6196379;23;20019;-70
2023/12/03 12:25:27;;;;;;;20.40;4.60;;;1.50;99.90;;;;;;6192543;23;20000;-73
2023/12/03 12:27:54;;;;;;;6.50;4.35;;;2.10;99.90;;;;;;6198560;23;20005;-72
2023/12/03 12:30:24;;;;;;;8.77;3.78;;;2.10;99.90;;;;;;6197892;23;20481;-70
2023/12/03 12:32:54;;;;;;;6.47;3.80;;;2.10;99.90;;;;;;6199653;23;20004;-76
2023/12/03 12:35:24;;;;;;;4.13;3.38;;;1.90;99.90;;;;;;6185862;23;20479;-72
2023/12/03 12:38:18;;;;;;;4.85;3.00;;;1.80;99.90;;;;;;6192660;23;20071;-72
2023/12/03 12:40:55;;;;;;;13.23;9.07;;;1.60;99.90;;;;;;6187488;23;20469;-73
2023/12/03 12:43:21;;;;;;;10.75;8.65;;;1.50;99.90;;;;;;6198971;23;20028;-72
2023/12/03 12:45:49;;;;;;;17.90;12.15;;;1.50;99.90;;;;;;6198833;23;20484;-72
2023/12/03 12:48:22;;;;;;;9.65;7.30;;;1.60;99.90;;;;;;6198950;23;20008;-72
2023/12/03 12:50:47;;;;;;;20.80;12.90;;;1.70;99.90;;;;;;6198613;23;20005;-74